CYCB

Cambridge Bay Airport

Cambridge Bay, Canada

CYCB 260100Z 12011KT 15SM FEW005 BKN030 BKN150 03/02 A2976 RMK SF1SC4AC1 SLP082

Observed Flight Rules
Sep-26 @ 01:00 UTC (51 minutes ago)
 
Marginal Visual Flight Rules
Wind Visibility Clouds
120° at 11 knots 15 miles
  • Few at 500' AGL
  • Broken at 3,000' AGL
  • Broken at 15,000' AGL
Temperatures Readings
Current 3°C / 37°F
Dewpoint 2°C / 36°F
Humidity 93%
Altimeter 29.76" Hg
Pressure 1008.2 hPa
Elevation 27
Observed Flight Rules
Sep-26 @ 01:00 UTC
(51 minutes ago)
 
MVFR
Wind Visibility
120° at 11 knots 15 miles
Clouds
  • Few at 500' AGL
  • Broken at 3,000' AGL
  • Broken at 15,000' AGL
Temperature Dewpoint
3°C / 37°F 2°C / 36°F
Humidity Altimeter Pressure
93% 29.76" Hg 1008.2 hPa